sensor_id;sensor_type;location;lat;lon;timestamp;temperature;humidity
3705;DHT22;1868;48.918;9.438;2023-09-19T00:00:33;18.40;97.40
3705;DHT22;1868;48.918;9.438;2023-09-19T00:03:03;18.40;97.40
3705;DHT22;1868;48.918;9.438;2023-09-19T00:05:36;18.40;97.40
3705;DHT22;1868;48.918;9.438;2023-09-19T00:08:13;18.40;97.40
3705;DHT22;1868;48.918;9.438;2023-09-19T00:10:43;18.40;97.40
3705;DHT22;1868;48.918;9.438;2023-09-19T00:13:13;18.40;97.40
3705;DHT22;1868;48.918;9.438;2023-09-19T00:15:44;18.30;97.40
3705;DHT22;1868;48.918;9.438;2023-09-19T00:18:17;18.30;97.40
3705;DHT22;1868;48.918;9.438;2023-09-19T00:20:49;18.30;97.40
3705;DHT22;1868;48.918;9.438;2023-09-19T00:23:22;18.20;97.40
3705;DHT22;1868;48.918;9.438;2023-09-19T00:25:53;18.20;97.40
3705;DHT22;1868;48.918;9.438;2023-09-19T00:28:31;18.10;97.40
3705;DHT22;1868;48.918;9.438;2023-09-19T00:31:08;18.10;97.40
3705;DHT22;1868;48.918;9.438;2023-09-19T00:33:40;18.00;97.40
3705;DHT22;1868;48.918;9.438;2023-09-19T00:36:12;18.00;97.40
3705;DHT22;1868;48.918;9.438;2023-09-19T00:38:52;18.00;97.40
3705;DHT22;1868;48.918;9.438;2023-09-19T00:41:24;17.90;97.40
3705;DHT22;1868;48.918;9.438;2023-09-19T00:43:57;17.90;97.40
3705;DHT22;1868;48.918;9.438;2023-09-19T00:46:30;17.90;97.40
3705;DHT22;1868;48.918;9.438;2023-09-19T00:49:05;17.80;97.40
3705;DHT22;1868;48.918;9.438;2023-09-19T00:51:45;17.80;97.40
3705;DHT22;1868;48.918;9.438;2023-09-19T00:54:20;17.80;97.40
3705;DHT22;1868;48.918;9.438;2023-09-19T00:56:50;17.80;97.40
3705;DHT22;1868;48.918;9.438;2023-09-19T00:59:24;17.80;97.40
3705;DHT22;1868;48.918;9.438;2023-09-19T01:01:56;17.70;97.40
3705;DHT22;1868;48.918;9.438;2023-09-19T01:04:34;17.70;97.40
3705;DHT22;1868;48.918;9.438;2023-09-19T01:07:03;17.70;97.40
3705;DHT22;1868;48.918;9.438;2023-09-19T01:09:33;17.70;97.40
3705;DHT22;1868;48.918;9.438;2023-09-19T01:12:05;17.70;97.40
3705;DHT22;1868;48.918;9.438;2023-09-19T01:14:52;17.70;97.40
3705;DHT22;1868;48.918;9.438;2023-09-19T01:17:31;17.60;97.40
3705;DHT22;1868;48.918;9.438;2023-09-19T01:20:19;17.60;97.40
3705;DHT22;1868;48.918;9.438;2023-09-19T01:23:02;17.70;97.40
3705;DHT22;1868;48.918;9.438;2023-09-19T01:28:52;17.60;97.40
3705;DHT22;1868;48.918;9.438;2023-09-19T01:31:28;17.60;97.40
3705;DHT22;1868;48.918;9.438;2023-09-19T01:34:03;17.60;97.40
3705;DHT22;1868;48.918;9.438;2023-09-19T01:36:35;17.60;97.40
3705;DHT22;1868;48.918;9.438;2023-09-19T01:39:07;17.60;97.40
3705;DHT22;1868;48.918;9.438;2023-09-19T01:41:56;17.50;97.40
3705;DHT22;1868;48.918;9.438;2023-09-19T01:44:39;17.50;97.40
3705;DHT22;1868;48.918;9.438;2023-09-19T01:47:23;17.50;97.40
3705;DHT22;1868;48.918;9.438;2023-09-19T01:50:13;17.50;97.40
3705;DHT22;1868;48.918;9.438;2023-09-19T01:52:56;17.60;97.40
3705;DHT22;1868;48.918;9.438;2023-09-19T01:55:37;17.50;97.40
3705;DHT22;1868;48.918;9.438;2023-09-19T01:58:17;17.50;97.40
3705;DHT22;1868;48.918;9.438;2023-09-19T02:00:53;17.60;97.40
3705;DHT22;1868;48.918;9.438;2023-09-19T02:03:27;17.60;97.40
3705;DHT22;1868;48.918;9.438;2023-09-19T02:05:57;17.50;97.40
3705;DHT22;1868;48.918;9.438;2023-09-19T02:08:31;17.60;97.40
3705;DHT22;1868;48.918;9.438;2023-09-19T02:11:03;17.60;97.40
3705;DHT22;1868;48.918;9.438;2023-09-19T02:13:35;17.60;97.40
3705;DHT22;1868;48.918;9.438;2023-09-19T02:16:11;17.50;97.40
3705;DHT22;1868;48.918;9.438;2023-09-19T02:18:42;17.60;97.40
3705;DHT22;1868;48.918;9.438;2023-09-19T02:21:13;17.60;97.40
3705;DHT22;1868;48.918;9.438;2023-09-19T02:23:45;17.70;97.40
3705;DHT22;1868;48.918;9.438;2023-09-19T02:26:19;17.70;97.40
3705;DHT22;1868;48.918;9.438;2023-09-19T02:28:51;17.70;97.40
3705;DHT22;1868;48.918;9.438;2023-09-19T02:31:21;17.70;97.40
3705;DHT22;1868;48.918;9.438;2023-09-19T02:33:54;17.70;97.40
3705;DHT22;1868;48.918;9.438;2023-09-19T02:36:28;17.60;97.40
3705;DHT22;1868;48.918;9.438;2023-09-19T02:38:58;17.60;97.40
3705;DHT22;1868;48.918;9.438;2023-09-19T02:41:27;17.50;97.40
3705;DHT22;1868;48.918;9.438;2023-09-19T02:43:58;17.40;97.40
3705;DHT22;1868;48.918;9.438;2023-09-19T02:46:30;17.40;97.40
3705;DHT22;1868;48.918;9.438;2023-09-19T02:49:03;17.40;97.40
3705;DHT22;1868;48.918;9.438;2023-09-19T02:51:34;17.30;97.40
3705;DHT22;1868;48.918;9.438;2023-09-19T02:54:03;17.20;97.40
3705;DHT22;1868;48.918;9.438;2023-09-19T02:56:37;17.20;97.40
3705;DHT22;1868;48.918;9.438;2023-09-19T02:59:06;17.10;97.40
3705;DHT22;1868;48.918;9.438;2023-09-19T03:01:38;17.10;97.40
3705;DHT22;1868;48.918;9.438;2023-09-19T03:04:12;17.10;97.40
3705;DHT22;1868;48.918;9.438;2023-09-19T03:06:50;17.00;97.40
3705;DHT22;1868;48.918;9.438;2023-09-19T03:09:23;17.00;97.40
3705;DHT22;1868;48.918;9.438;2023-09-19T03:11:55;17.00;97.40
3705;DHT22;1868;48.918;9.438;2023-09-19T03:14:26;17.00;97.40
3705;DHT22;1868;48.918;9.438;2023-09-19T03:17:03;17.00;97.40
3705;DHT22;1868;48.918;9.438;2023-09-19T03:19:34;17.00;97.40
3705;DHT22;1868;48.918;9.438;2023-09-19T03:22:07;17.00;97.40
3705;DHT22;1868;48.918;9.438;2023-09-19T03:24:38;17.10;97.40
3705;DHT22;1868;48.918;9.438;2023-09-19T03:27:09;17.10;97.40
3705;DHT22;1868;48.918;9.438;2023-09-19T03:29:44;17.10;97.40
3705;DHT22;1868;48.918;9.438;2023-09-19T03:32:15;17.20;97.40
3705;DHT22;1868;48.918;9.438;2023-09-19T03:34:47;17.20;97.40
3705;DHT22;1868;48.918;9.438;2023-09-19T03:37:17;17.20;97.40
3705;DHT22;1868;48.918;9.438;2023-09-19T03:39:47;17.20;97.40
3705;DHT22;1868;48.918;9.438;2023-09-19T03:42:16;17.20;97.40
3705;DHT22;1868;48.918;9.438;2023-09-19T03:44:53;17.20;97.40
3705;DHT22;1868;48.918;9.438;2023-09-19T03:47:23;17.20;97.40
3705;DHT22;1868;48.918;9.438;2023-09-19T03:50:09;17.30;97.40
3705;DHT22;1868;48.918;9.438;2023-09-19T03:52:40;17.30;97.40
3705;DHT22;1868;48.918;9.438;2023-09-19T03:55:12;17.30;97.40
3705;DHT22;1868;48.918;9.438;2023-09-19T03:57:50;17.30;97.40
3705;DHT22;1868;48.918;9.438;2023-09-19T04:00:20;17.30;97.40
3705;DHT22;1868;48.918;9.438;2023-09-19T04:02:52;17.30;97.40
3705;DHT22;1868;48.918;9.438;2023-09-19T04:05:26;17.30;97.40
3705;DHT22;1868;48.918;9.438;2023-09-19T04:07:55;17.40;97.40
3705;DHT22;1868;48.918;9.438;2023-09-19T04:10:26;17.40;97.40
3705;DHT22;1868;48.918;9.438;2023-09-19T04:12:56;17.40;97.40
3705;DHT22;1868;48.918;9.438;2023-09-19T04:15:25;17.40;97.40
3705;DHT22;1868;48.918;9.438;2023-09-19T04:17:54;17.40;97.40
3705;DHT22;1868;48.918;9.438;2023-09-19T04:20:28;17.40;97.40
3705;DHT22;1868;48.918;9.438;2023-09-19T04:23:00;17.30;97.40
3705;DHT22;1868;48.918;9.438;2023-09-19T04:25:32;17.30;97.40
3705;DHT22;1868;48.918;9.438;2023-09-19T04:28:02;17.20;97.40
3705;DHT22;1868;48.918;9.438;2023-09-19T04:30:31;17.30;97.40
3705;DHT22;1868;48.918;9.438;2023-09-19T04:33:01;17.30;97.40
3705;DHT22;1868;48.918;9.438;2023-09-19T04:35:37;17.30;97.40
3705;DHT22;1868;48.918;9.438;2023-09-19T04:38:10;17.30;97.40
3705;DHT22;1868;48.918;9.438;2023-09-19T04:40:42;17.30;97.40
3705;DHT22;1868;48.918;9.438;2023-09-19T04:43:11;17.30;97.40
3705;DHT22;1868;48.918;9.438;2023-09-19T04:45:42;17.30;97.40
3705;DHT22;1868;48.918;9.438;2023-09-19T04:48:11;17.20;97.40
3705;DHT22;1868;48.918;9.438;2023-09-19T04:50:45;17.30;97.40
3705;DHT22;1868;48.918;9.438;2023-09-19T04:53:20;17.30;97.40
3705;DHT22;1868;48.918;9.438;2023-09-19T04:55:52;17.30;97.40
3705;DHT22;1868;48.918;9.438;2023-09-19T04:58:23;17.30;97.40
3705;DHT22;1868;48.918;9.438;2023-09-19T05:00:52;17.30;97.40
3705;DHT22;1868;48.918;9.438;2023-09-19T05:03:20;17.30;97.40
3705;DHT22;1868;48.918;9.438;2023-09-19T05:05:54;17.30;97.40
3705;DHT22;1868;48.918;9.438;2023-09-19T05:08:24;17.30;97.40
3705;DHT22;1868;48.918;9.438;2023-09-19T05:10:53;17.30;97.40
3705;DHT22;1868;48.918;9.438;2023-09-19T05:13:24;17.30;97.40
3705;DHT22;1868;48.918;9.438;2023-09-19T05:15:55;17.30;97.40
3705;DHT22;1868;48.918;9.438;2023-09-19T05:18:30;17.30;97.40
3705;DHT22;1868;48.918;9.438;2023-09-19T05:21:06;17.20;97.40
3705;DHT22;1868;48.918;9.438;2023-09-19T05:23:38;17.20;97.40
3705;DHT22;1868;48.918;9.438;2023-09-19T05:26:09;17.00;97.40
3705;DHT22;1868;48.918;9.438;2023-09-19T05:28:42;17.00;97.40
3705;DHT22;1868;48.918;9.438;2023-09-19T05:31:11;17.00;97.40
3705;DHT22;1868;48.918;9.438;2023-09-19T05:33:41;16.80;97.40
3705;DHT22;1868;48.918;9.438;2023-09-19T05:36:12;16.70;97.40
3705;DHT22;1868;48.918;9.438;2023-09-19T05:38:43;16.60;97.40
3705;DHT22;1868;48.918;9.438;2023-09-19T05:41:12;16.60;97.40
3705;DHT22;1868;48.918;9.438;2023-09-19T05:43:43;16.50;97.40
3705;DHT22;1868;48.918;9.438;2023-09-19T05:46:15;16.50;97.40
3705;DHT22;1868;48.918;9.438;2023-09-19T05:48:46;16.50;97.40
3705;DHT22;1868;48.918;9.438;2023-09-19T05:51:27;16.40;97.40
3705;DHT22;1868;48.918;9.438;2023-09-19T05:53:56;16.40;97.40
3705;DHT22;1868;48.918;9.438;2023-09-19T05:56:25;16.50;97.40
3705;DHT22;1868;48.918;9.438;2023-09-19T05:58:59;16.60;97.40
3705;DHT22;1868;48.918;9.438;2023-09-19T06:01:35;16.50;97.40
3705;DHT22;1868;48.918;9.438;2023-09-19T06:04:10;16.50;97.40
3705;DHT22;1868;48.918;9.438;2023-09-19T06:06:48;16.40;97.40
3705;DHT22;1868;48.918;9.438;2023-09-19T06:09:21;16.40;97.40
3705;DHT22;1868;48.918;9.438;2023-09-19T06:11:54;16.30;97.40
3705;DHT22;1868;48.918;9.438;2023-09-19T06:14:26;16.30;97.40
3705;DHT22;1868;48.918;9.438;2023-09-19T06:16:55;16.30;97.40
3705;DHT22;1868;48.918;9.438;2023-09-19T06:19:26;16.40;97.40
3705;DHT22;1868;48.918;9.438;2023-09-19T06:21:56;16.50;97.40
3705;DHT22;1868;48.918;9.438;2023-09-19T06:24:26;16.60;97.40
3705;DHT22;1868;48.918;9.438;2023-09-19T06:26:59;16.50;97.40
3705;DHT22;1868;48.918;9.438;2023-09-19T06:29:33;16.50;97.40
3705;DHT22;1868;48.918;9.438;2023-09-19T06:32:07;16.50;97.40
3705;DHT22;1868;48.918;9.438;2023-09-19T06:34:37;16.50;97.40
3705;DHT22;1868;48.918;9.438;2023-09-19T06:37:16;16.50;97.40
3705;DHT22;1868;48.918;9.438;2023-09-19T06:39:46;16.50;97.40
3705;DHT22;1868;48.918;9.438;2023-09-19T06:42:17;16.50;97.40
3705;DHT22;1868;48.918;9.438;2023-09-19T06:44:48;16.50;97.40
3705;DHT22;1868;48.918;9.438;2023-09-19T06:47:18;16.50;97.40
3705;DHT22;1868;48.918;9.438;2023-09-19T06:49:48;16.40;97.40
3705;DHT22;1868;48.918;9.438;2023-09-19T06:52:20;16.40;97.40
3705;DHT22;1868;48.918;9.438;2023-09-19T06:54:51;16.40;97.40
3705;DHT22;1868;48.918;9.438;2023-09-19T06:57:25;16.50;97.40
3705;DHT22;1868;48.918;9.438;2023-09-19T06:59:55;16.40;97.40
3705;DHT22;1868;48.918;9.438;2023-09-19T07:02:25;16.50;97.40
3705;DHT22;1868;48.918;9.438;2023-09-19T07:04:54;16.60;97.40
3705;DHT22;1868;48.918;9.438;2023-09-19T07:07:29;16.70;97.40
3705;DHT22;1868;48.918;9.438;2023-09-19T07:10:03;16.90;97.40
3705;DHT22;1868;48.918;9.438;2023-09-19T07:12:34;17.00;97.40
3705;DHT22;1868;48.918;9.438;2023-09-19T07:15:07;17.20;97.40
3705;DHT22;1868;48.918;9.438;2023-09-19T07:17:40;17.70;97.40
3705;DHT22;1868;48.918;9.438;2023-09-19T07:20:12;18.00;97.40
3705;DHT22;1868;48.918;9.438;2023-09-19T07:22:46;18.30;97.40
3705;DHT22;1868;48.918;9.438;2023-09-19T07:25:17;18.60;97.40
3705;DHT22;1868;48.918;9.438;2023-09-19T07:27:46;18.90;97.40
3705;DHT22;1868;48.918;9.438;2023-09-19T07:30:15;19.20;97.40
3705;DHT22;1868;48.918;9.438;2023-09-19T07:32:47;19.50;97.40
3705;DHT22;1868;48.918;9.438;2023-09-19T07:35:17;19.40;97.40
3705;DHT22;1868;48.918;9.438;2023-09-19T07:37:51;19.50;97.40
3705;DHT22;1868;48.918;9.438;2023-09-19T07:40:22;19.40;97.40
3705;DHT22;1868;48.918;9.438;2023-09-19T07:42:54;19.30;97.40
3705;DHT22;1868;48.918;9.438;2023-09-19T07:45:25;19.30;97.40
3705;DHT22;1868;48.918;9.438;2023-09-19T07:47:59;19.30;97.40
3705;DHT22;1868;48.918;9.438;2023-09-19T07:50:34;19.50;97.40
3705;DHT22;1868;48.918;9.438;2023-09-19T07:53:08;19.60;97.40
3705;DHT22;1868;48.918;9.438;2023-09-19T07:55:43;19.90;97.40
3705;DHT22;1868;48.918;9.438;2023-09-19T07:58:16;20.30;97.40
3705;DHT22;1868;48.918;9.438;2023-09-19T08:00:46;20.50;97.40
3705;DHT22;1868;48.918;9.438;2023-09-19T08:03:15;20.60;97.40
3705;DHT22;1868;48.918;9.438;2023-09-19T08:05:47;21.00;97.40
3705;DHT22;1868;48.918;9.438;2023-09-19T08:08:19;21.10;97.40
3705;DHT22;1868;48.918;9.438;2023-09-19T08:11:16;21.10;97.40
3705;DHT22;1868;48.918;9.438;2023-09-19T08:13:48;21.30;97.40
3705;DHT22;1868;48.918;9.438;2023-09-19T08:16:20;21.50;97.40
3705;DHT22;1868;48.918;9.438;2023-09-19T08:18:52;21.80;97.40
3705;DHT22;1868;48.918;9.438;2023-09-19T08:21:25;21.70;97.40
3705;DHT22;1868;48.918;9.438;2023-09-19T08:23:57;21.90;97.40
3705;DHT22;1868;48.918;9.438;2023-09-19T08:26:28;22.40;97.40
3705;DHT22;1868;48.918;9.438;2023-09-19T08:28:58;22.70;97.40
3705;DHT22;1868;48.918;9.438;2023-09-19T08:31:34;23.00;97.40
3705;DHT22;1868;48.918;9.438;2023-09-19T08:34:04;23.40;97.40
3705;DHT22;1868;48.918;9.438;2023-09-19T08:36:33;23.90;97.40
3705;DHT22;1868;48.918;9.438;2023-09-19T08:39:06;24.10;97.40
3705;DHT22;1868;48.918;9.438;2023-09-19T08:41:37;24.40;97.40
3705;DHT22;1868;48.918;9.438;2023-09-19T08:44:11;24.60;97.40
3705;DHT22;1868;48.918;9.438;2023-09-19T08:46:43;24.80;97.40
3705;DHT22;1868;48.918;9.438;2023-09-19T08:49:23;25.10;97.40
3705;DHT22;1868;48.918;9.438;2023-09-19T08:52:05;25.00;97.40
3705;DHT22;1868;48.918;9.438;2023-09-19T08:54:44;24.70;97.40
3705;DHT22;1868;48.918;9.438;2023-09-19T08:57:18;24.90;97.40
3705;DHT22;1868;48.918;9.438;2023-09-19T08:59:49;24.70;97.40
3705;DHT22;1868;48.918;9.438;2023-09-19T09:02:20;24.50;97.40
3705;DHT22;1868;48.918;9.438;2023-09-19T09:04:57;24.60;97.40
3705;DHT22;1868;48.918;9.438;2023-09-19T09:07:27;24.70;97.40
3705;DHT22;1868;48.918;9.438;2023-09-19T09:10:00;24.70;97.40
3705;DHT22;1868;48.918;9.438;2023-09-19T09:12:29;24.70;97.40
3705;DHT22;1868;48.918;9.438;2023-09-19T09:15:09;24.80;97.40
3705;DHT22;1868;48.918;9.438;2023-09-19T09:17:46;24.50;97.40
3705;DHT22;1868;48.918;9.438;2023-09-19T09:20:17;24.00;97.40
3705;DHT22;1868;48.918;9.438;2023-09-19T09:22:52;24.20;97.40
3705;DHT22;1868;48.918;9.438;2023-09-19T09:25:23;24.20;97.40
3705;DHT22;1868;48.918;9.438;2023-09-19T09:28:20;24.10;97.40
3705;DHT22;1868;48.918;9.438;2023-09-19T09:30:52;24.30;97.40
3705;DHT22;1868;48.918;9.438;2023-09-19T09:33:23;24.00;97.40
3705;DHT22;1868;48.918;9.438;2023-09-19T09:35:59;24.30;97.40
3705;DHT22;1868;48.918;9.438;2023-09-19T09:38:43;24.40;97.40
3705;DHT22;1868;48.918;9.438;2023-09-19T09:41:16;24.20;97.40
3705;DHT22;1868;48.918;9.438;2023-09-19T09:43:55;23.60;97.40
3705;DHT22;1868;48.918;9.438;2023-09-19T09:46:28;23.20;97.40
3705;DHT22;1868;48.918;9.438;2023-09-19T09:49:23;23.30;97.40
3705;DHT22;1868;48.918;9.438;2023-09-19T09:52:03;23.80;97.20
3705;DHT22;1868;48.918;9.438;2023-09-19T09:54:38;23.70;97.40
3705;DHT22;1868;48.918;9.438;2023-09-19T09:57:35;23.80;96.70
3705;DHT22;1868;48.918;9.438;2023-09-19T10:00:04;23.70;96.30
3705;DHT22;1868;48.918;9.438;2023-09-19T10:02:48;24.20;95.10
3705;DHT22;1868;48.918;9.438;2023-09-19T10:05:20;24.40;95.50
3705;DHT22;1868;48.918;9.438;2023-09-19T10:07:56;24.80;93.30
3705;DHT22;1868;48.918;9.438;2023-09-19T10:10:48;24.70;93.60
3705;DHT22;1868;48.918;9.438;2023-09-19T10:13:36;25.10;92.00
3705;DHT22;1868;48.918;9.438;2023-09-19T10:16:12;25.40;91.30
3705;DHT22;1868;48.918;9.438;2023-09-19T10:18:43;25.50;91.70
3705;DHT22;1868;48.918;9.438;2023-09-19T10:21:17;25.50;90.10
3705;DHT22;1868;48.918;9.438;2023-09-19T10:23:51;25.90;90.90
3705;DHT22;1868;48.918;9.438;2023-09-19T10:26:25;26.40;89.20
3705;DHT22;1868;48.918;9.438;2023-09-19T10:28:59;26.70;86.60
3705;DHT22;1868;48.918;9.438;2023-09-19T10:31:39;26.30;87.70
3705;DHT22;1868;48.918;9.438;2023-09-19T10:34:15;26.70;83.00
3705;DHT22;1868;48.918;9.438;2023-09-19T10:36:51;27.20;83.40
3705;DHT22;1868;48.918;9.438;2023-09-19T10:39:22;27.30;81.20
3705;DHT22;1868;48.918;9.438;2023-09-19T10:41:55;27.20;83.00
3705;DHT22;1868;48.918;9.438;2023-09-19T10:44:28;27.40;79.10
3705;DHT22;1868;48.918;9.438;2023-09-19T10:47:01;26.60;82.30
3705;DHT22;1868;48.918;9.438;2023-09-19T10:49:35;26.00;84.70
3705;DHT22;1868;48.918;9.438;2023-09-19T10:52:17;25.50;87.50
3705;DHT22;1868;48.918;9.438;2023-09-19T10:54:55;24.90;89.40
3705;DHT22;1868;48.918;9.438;2023-09-19T10:57:29;25.00;91.30
3705;DHT22;1868;48.918;9.438;2023-09-19T11:00:07;26.20;84.00
3705;DHT22;1868;48.918;9.438;2023-09-19T11:03:19;25.50;84.10
3705;DHT22;1868;48.918;9.438;2023-09-19T11:06:05;25.80;83.60
3705;DHT22;1868;48.918;9.438;2023-09-19T11:08:52;26.10;83.60
3705;DHT22;1868;48.918;9.438;2023-09-19T11:11:43;26.70;85.10
3705;DHT22;1868;48.918;9.438;2023-09-19T11:17:33;26.60;79.90
3705;DHT22;1868;48.918;9.438;2023-09-19T11:20:34;26.20;82.30
3705;DHT22;1868;48.918;9.438;2023-09-19T11:23:23;25.80;86.40
3705;DHT22;1868;48.918;9.438;2023-09-19T11:25:57;25.70;86.20
3705;DHT22;1868;48.918;9.438;2023-09-19T11:28:30;26.30;84.50
3705;DHT22;1868;48.918;9.438;2023-09-19T11:31:43;26.70;81.70
3705;DHT22;1868;48.918;9.438;2023-09-19T11:34:38;26.00;82.50
3705;DHT22;1868;48.918;9.438;2023-09-19T11:40:38;25.10;86.20
3705;DHT22;1868;48.918;9.438;2023-09-19T11:43:31;25.30;89.40
3705;DHT22;1868;48.918;9.438;2023-09-19T11:46:09;24.90;91.50
3705;DHT22;1868;48.918;9.438;2023-09-19T11:48:41;24.60;93.70
3705;DHT22;1868;48.918;9.438;2023-09-19T11:51:19;24.80;93.50
3705;DHT22;1868;48.918;9.438;2023-09-19T11:53:51;24.90;93.80
3705;DHT22;1868;48.918;9.438;2023-09-19T11:56:22;24.30;94.50
3705;DHT22;1868;48.918;9.438;2023-09-19T11:58:55;25.20;93.30
3705;DHT22;1868;48.918;9.438;2023-09-19T12:01:27;26.20;90.10
3705;DHT22;1868;48.918;9.438;2023-09-19T12:04:02;27.00;89.20
3705;DHT22;1868;48.918;9.438;2023-09-19T12:06:32;27.50;84.70
3705;DHT22;1868;48.918;9.438;2023-09-19T12:09:00;28.10;81.50
3705;DHT22;1868;48.918;9.438;2023-09-19T12:11:41;28.70;81.70
3705;DHT22;1868;48.918;9.438;2023-09-19T12:14:20;27.70;80.20
3705;DHT22;1868;48.918;9.438;2023-09-19T12:16:53;27.40;84.10
3705;DHT22;1868;48.918;9.438;2023-09-19T12:19:26;27.40;82.80
3705;DHT22;1868;48.918;9.438;2023-09-19T12:21:58;27.00;82.80
3705;DHT22;1868;48.918;9.438;2023-09-19T12:24:32;27.60;82.50
3705;DHT22;1868;48.918;9.438;2023-09-19T12:27:05;27.70;81.50
3705;DHT22;1868;48.918;9.438;2023-09-19T12:29:43;28.30;78.60
3705;DHT22;1868;48.918;9.438;2023-09-19T12:32:16;29.10;75.00
3705;DHT22;1868;48.918;9.438;2023-09-19T12:34:53;29.30;76.30
3705;DHT22;1868;48.918;9.438;2023-09-19T12:37:22;28.60;75.60
3705;DHT22;1868;48.918;9.438;2023-09-19T12:40:05;29.10;72.60
3705;DHT22;1868;48.918;9.438;2023-09-19T12:42:45;29.60;69.40
3705;DHT22;1868;48.918;9.438;2023-09-19T12:45:15;28.50;72.80
3705;DHT22;1868;48.918;9.438;2023-09-19T12:48:17;27.60;76.90
3705;DHT22;1868;48.918;9.438;2023-09-19T12:51:02;27.20;75.80
3705;DHT22;1868;48.918;9.438;2023-09-19T12:53:34;26.20;80.00
3705;DHT22;1868;48.918;9.438;2023-09-19T12:56:09;25.90;83.60
3705;DHT22;1868;48.918;9.438;2023-09-19T12:58:51;26.20;85.30
3705;DHT22;1868;48.918;9.438;2023-09-19T13:01:22;26.30;81.50
3705;DHT22;1868;48.918;9.438;2023-09-19T13:04:14;26.40;82.30
3705;DHT22;1868;48.918;9.438;2023-09-19T13:06:50;25.90;81.50
3705;DHT22;1868;48.918;9.438;2023-09-19T13:09:20;25.80;83.00
3705;DHT22;1868;48.918;9.438;2023-09-19T13:11:52;26.20;83.20
3705;DHT22;1868;48.918;9.438;2023-09-19T13:14:27;27.00;80.20
3705;DHT22;1868;48.918;9.438;2023-09-19T13:17:00;28.00;76.10
3705;DHT22;1868;48.918;9.438;2023-09-19T13:19:42;28.30;75.00
3705;DHT22;1868;48.918;9.438;2023-09-19T13:22:41;27.80;72.40
3705;DHT22;1868;48.918;9.438;2023-09-19T13:25:14;28.20;74.50
3705;DHT22;1868;48.918;9.438;2023-09-19T13:27:48;28.20;73.50
3705;DHT22;1868;48.918;9.438;2023-09-19T13:30:23;28.80;71.80
3705;DHT22;1868;48.918;9.438;2023-09-19T13:33:05;29.30;66.30
3705;DHT22;1868;48.918;9.438;2023-09-19T13:35:37;28.50;68.30
3705;DHT22;1868;48.918;9.438;2023-09-19T13:38:11;28.00;71.30
3705;DHT22;1868;48.918;9.438;2023-09-19T13:40:41;27.90;72.60
3705;DHT22;1868;48.918;9.438;2023-09-19T13:43:14;27.70;70.50
3705;DHT22;1868;48.918;9.438;2023-09-19T13:45:44;27.40;73.70
3705;DHT22;1868;48.918;9.438;2023-09-19T13:48:15;27.30;72.60
3705;DHT22;1868;48.918;9.438;2023-09-19T13:50:49;27.50;73.20
3705;DHT22;1868;48.918;9.438;2023-09-19T13:53:25;28.20;69.60
3705;DHT22;1868;48.918;9.438;2023-09-19T13:55:56;28.70;69.80
3705;DHT22;1868;48.918;9.438;2023-09-19T13:58:26;29.30;67.40
3705;DHT22;1868;48.918;9.438;2023-09-19T14:00:56;28.90;67.00
3705;DHT22;1868;48.918;9.438;2023-09-19T14:03:35;28.40;67.20
3705;DHT22;1868;48.918;9.438;2023-09-19T14:06:05;27.30;70.40
3705;DHT22;1868;48.918;9.438;2023-09-19T14:08:35;27.00;72.20
3705;DHT22;1868;48.918;9.438;2023-09-19T14:11:06;27.00;73.90
3705;DHT22;1868;48.918;9.438;2023-09-19T14:13:37;26.50;77.10
3705;DHT22;1868;48.918;9.438;2023-09-19T14:16:06;26.50;79.10
3705;DHT22;1868;48.918;9.438;2023-09-19T14:18:36;27.10;76.30
3705;DHT22;1868;48.918;9.438;2023-09-19T14:21:07;27.70;75.60
3705;DHT22;1868;48.918;9.438;2023-09-19T14:23:40;28.20;74.80
3705;DHT22;1868;48.918;9.438;2023-09-19T14:26:10;28.60;70.00
3705;DHT22;1868;48.918;9.438;2023-09-19T14:28:42;28.40;70.40
3705;DHT22;1868;48.918;9.438;2023-09-19T14:31:15;28.00;72.80
3705;DHT22;1868;48.918;9.438;2023-09-19T14:33:45;27.90;75.00
3705;DHT22;1868;48.918;9.438;2023-09-19T14:36:17;27.50;77.40
3705;DHT22;1868;48.918;9.438;2023-09-19T14:38:52;27.30;78.00
3705;DHT22;1868;48.918;9.438;2023-09-19T14:41:22;27.00;78.90
3705;DHT22;1868;48.918;9.438;2023-09-19T14:43:52;26.40;81.70
3705;DHT22;1868;48.918;9.438;2023-09-19T14:46:22;26.00;82.70
3705;DHT22;1868;48.918;9.438;2023-09-19T14:48:53;26.00;84.50
3705;DHT22;1868;48.918;9.438;2023-09-19T14:51:23;26.10;85.60
3705;DHT22;1868;48.918;9.438;2023-09-19T14:53:56;26.10;85.80
3705;DHT22;1868;48.918;9.438;2023-09-19T14:56:25;26.00;85.30
3705;DHT22;1868;48.918;9.438;2023-09-19T14:58:57;26.00;86.00
3705;DHT22;1868;48.918;9.438;2023-09-19T15:01:28;26.30;85.30
3705;DHT22;1868;48.918;9.438;2023-09-19T15:04:02;26.60;84.50
3705;DHT22;1868;48.918;9.438;2023-09-19T15:06:33;27.20;83.80
3705;DHT22;1868;48.918;9.438;2023-09-19T15:09:07;27.40;82.30
3705;DHT22;1868;48.918;9.438;2023-09-19T15:11:36;27.50;81.20
3705;DHT22;1868;48.918;9.438;2023-09-19T15:14:08;27.60;80.40
3705;DHT22;1868;48.918;9.438;2023-09-19T15:16:39;27.80;80.80
3705;DHT22;1868;48.918;9.438;2023-09-19T15:19:10;27.80;81.00
3705;DHT22;1868;48.918;9.438;2023-09-19T15:21:39;26.90;81.90
3705;DHT22;1868;48.918;9.438;2023-09-19T15:24:10;26.30;85.50
3705;DHT22;1868;48.918;9.438;2023-09-19T15:26:38;26.30;87.30
3705;DHT22;1868;48.918;9.438;2023-09-19T15:29:08;26.30;87.70
3705;DHT22;1868;48.918;9.438;2023-09-19T15:31:39;26.10;88.80
3705;DHT22;1868;48.918;9.438;2023-09-19T15:34:09;25.80;89.00
3705;DHT22;1868;48.918;9.438;2023-09-19T15:36:45;25.70;88.20
3705;DHT22;1868;48.918;9.438;2023-09-19T15:39:19;25.60;89.90
3705;DHT22;1868;48.918;9.438;2023-09-19T15:41:49;25.50;87.30
3705;DHT22;1868;48.918;9.438;2023-09-19T15:44:19;25.60;87.50
3705;DHT22;1868;48.918;9.438;2023-09-19T15:46:48;25.50;84.10
3705;DHT22;1868;48.918;9.438;2023-09-19T15:49:18;25.60;82.80
3705;DHT22;1868;48.918;9.438;2023-09-19T15:51:48;25.40;83.60
3705;DHT22;1868;48.918;9.438;2023-09-19T15:54:18;25.20;82.70
3705;DHT22;1868;48.918;9.438;2023-09-19T15:56:49;24.90;86.80
3705;DHT22;1868;48.918;9.438;2023-09-19T15:59:22;24.60;89.60
3705;DHT22;1868;48.918;9.438;2023-09-19T16:01:51;24.30;91.90
3705;DHT22;1868;48.918;9.438;2023-09-19T16:04:21;24.10;92.20
3705;DHT22;1868;48.918;9.438;2023-09-19T16:06:51;24.00;91.30
3705;DHT22;1868;48.918;9.438;2023-09-19T16:09:22;23.90;91.30
3705;DHT22;1868;48.918;9.438;2023-09-19T16:11:53;23.60;93.50
3705;DHT22;1868;48.918;9.438;2023-09-19T16:14:22;23.40;94.30
3705;DHT22;1868;48.918;9.438;2023-09-19T16:16:57;23.30;94.50
3705;DHT22;1868;48.918;9.438;2023-09-19T16:19:27;23.10;93.00
3705;DHT22;1868;48.918;9.438;2023-09-19T16:21:56;23.00;94.00
3705;DHT22;1868;48.918;9.438;2023-09-19T16:24:28;22.70;94.70
3705;DHT22;1868;48.918;9.438;2023-09-19T16:26:58;22.60;95.30
3705;DHT22;1868;48.918;9.438;2023-09-19T16:29:27;22.60;96.70
3705;DHT22;1868;48.918;9.438;2023-09-19T16:31:56;22.40;96.00
3705;DHT22;1868;48.918;9.438;2023-09-19T16:34:27;22.30;96.80
3705;DHT22;1868;48.918;9.438;2023-09-19T16:36:56;22.10;97.40
3705;DHT22;1868;48.918;9.438;2023-09-19T16:39:31;22.10;97.00
3705;DHT22;1868;48.918;9.438;2023-09-19T16:42:01;22.00;97.40
3705;DHT22;1868;48.918;9.438;2023-09-19T16:44:47;22.00;97.40
3705;DHT22;1868;48.918;9.438;2023-09-19T16:47:17;22.00;97.40
3705;DHT22;1868;48.918;9.438;2023-09-19T16:49:46;22.00;97.40
3705;DHT22;1868;48.918;9.438;2023-09-19T16:52:19;21.80;97.40
3705;DHT22;1868;48.918;9.438;2023-09-19T16:54:50;21.70;97.40